createdAt,value
2017-11-06T00:00:35.817Z,13.10
2017-11-06T00:03:04.074Z,13.10
2017-11-06T00:05:31.554Z,13.00
2017-11-06T00:07:59.799Z,13.30
2017-11-06T00:10:27.329Z,13.20
2017-11-06T00:12:54.815Z,13.20
2017-11-06T00:15:22.299Z,13.20
2017-11-06T00:17:50.554Z,13.10
2017-11-06T00:20:18.046Z,13.00
2017-11-06T00:22:46.294Z,13.20
2017-11-06T00:25:13.784Z,13.10
2017-11-06T00:27:42.025Z,13.10
2017-11-06T00:30:09.502Z,13.10
2017-11-06T00:32:37.759Z,13.20
2017-11-06T00:35:05.247Z,13.20
2017-11-06T00:37:33.494Z,13.60
2017-11-06T00:40:00.975Z,13.60
2017-11-06T00:42:29.223Z,13.20
2017-11-06T00:44:56.720Z,13.20
2017-11-06T00:47:24.962Z,13.10
2017-11-06T00:49:52.464Z,13.00
2017-11-06T00:52:20.764Z,13.00
2017-11-06T00:54:48.274Z,13.00
2017-11-06T00:57:15.746Z,13.20
2017-11-06T00:59:43.990Z,13.50
2017-11-06T01:02:11.474Z,13.40
2017-11-06T01:04:39.739Z,13.80
2017-11-06T01:07:07.227Z,13.80
2017-11-06T01:09:35.484Z,14.00
2017-11-06T01:12:03.736Z,13.60
2017-11-06T01:14:31.267Z,13.60
2017-11-06T01:16:58.742Z,13.70
2017-11-06T01:19:26.228Z,13.80
2017-11-06T01:21:53.720Z,13.40
2017-11-06T01:24:21.957Z,13.30
2017-11-06T01:26:49.444Z,13.30
2017-11-06T01:29:17.693Z,13.10
2017-11-06T01:31:45.175Z,13.10
2017-11-06T01:34:13.435Z,12.80
2017-11-06T01:36:40.918Z,12.80
2017-11-06T01:39:09.150Z,12.70
2017-11-06T01:41:36.626Z,12.70
2017-11-06T01:44:04.101Z,12.80
2017-11-06T01:46:32.348Z,12.90
2017-11-06T01:48:59.851Z,12.90
2017-11-06T01:51:28.097Z,12.60
2017-11-06T01:53:55.572Z,12.60
2017-11-06T01:56:23.047Z,12.50
2017-11-06T01:58:51.300Z,12.60
2017-11-06T02:01:19.549Z,12.50
2017-11-06T02:03:47.022Z,12.50
2017-11-06T02:06:14.508Z,12.40
2017-11-06T02:08:42.767Z,12.30
2017-11-06T02:11:10.260Z,12.30
2017-11-06T02:13:38.511Z,12.20
2017-11-06T02:16:05.994Z,12.10
2017-11-06T02:18:34.258Z,12.50
2017-11-06T02:21:02.546Z,12.30
2017-11-06T02:23:29.996Z,12.30
2017-11-06T02:25:58.238Z,12.10
2017-11-06T02:28:25.724Z,12.00
2017-11-06T02:30:53.988Z,11.90
2017-11-06T02:33:21.483Z,11.90
2017-11-06T02:35:48.962Z,12.00
2017-11-06T02:38:16.442Z,11.80
2017-11-06T02:40:43.926Z,11.80
2017-11-06T02:43:11.405Z,11.80
2017-11-06T02:45:38.902Z,11.80
2017-11-06T02:48:06.379Z,12.00
2017-11-06T02:50:33.858Z,11.90
2017-11-06T02:53:01.338Z,12.00
2017-11-06T02:55:29.588Z,11.80
2017-11-06T02:57:57.072Z,11.70
2017-11-06T03:00:25.314Z,11.80
2017-11-06T03:02:52.799Z,11.70
2017-11-06T03:05:20.267Z,12.00
2017-11-06T03:07:48.524Z,12.00
2017-11-06T03:10:16.004Z,11.90
2017-11-06T03:12:44.250Z,11.80
2017-11-06T03:15:11.725Z,11.80
2017-11-06T03:17:39.214Z,12.30
2017-11-06T03:20:06.698Z,12.10
2017-11-06T03:22:34.171Z,11.90
2017-11-06T03:25:01.675Z,11.80
2017-11-06T03:27:29.918Z,11.80
2017-11-06T03:29:57.400Z,11.80
2017-11-06T03:32:25.664Z,11.70
2017-11-06T03:34:53.150Z,11.70
2017-11-06T03:37:21.403Z,11.80
2017-11-06T03:39:50.399Z,11.80
2017-11-06T03:42:19.395Z,11.90
2017-11-06T03:44:46.876Z,11.90
2017-11-06T03:47:15.129Z,11.70
2017-11-06T03:49:42.614Z,11.60
2017-11-06T03:52:10.849Z,11.50
2017-11-06T03:54:38.342Z,11.50
2017-11-06T03:57:06.599Z,11.70
2017-11-06T03:59:34.075Z,11.60
2017-11-06T04:02:02.325Z,11.60
2017-11-06T04:04:29.814Z,11.50
2017-11-06T04:06:58.053Z,11.50
2017-11-06T04:09:25.540Z,11.50
2017-11-06T04:11:53.781Z,12.10
2017-11-06T04:14:21.268Z,12.10
2017-11-06T04:16:48.762Z,12.30
2017-11-06T04:19:16.253Z,11.90
2017-11-06T04:21:43.744Z,11.80
2017-11-06T04:24:11.213Z,11.50
2017-11-06T04:26:39.450Z,11.40
2017-11-06T04:29:06.926Z,11.30
2017-11-06T04:31:34.402Z,11.30
2017-11-06T04:34:01.883Z,11.50
2017-11-06T04:36:30.135Z,11.40
2017-11-06T04:38:57.616Z,11.40
2017-11-06T04:41:25.109Z,11.40
2017-11-06T04:43:52.582Z,11.30
2017-11-06T04:46:20.076Z,11.30
2017-11-06T04:48:48.321Z,11.10
2017-11-06T04:51:15.805Z,11.10
2017-11-06T04:53:43.294Z,11.20
2017-11-06T04:56:10.786Z,11.10
2017-11-06T04:58:38.271Z,11.20
2017-11-06T05:01:05.752Z,11.00
2017-11-06T05:03:34.002Z,11.20
2017-11-06T05:06:01.477Z,11.20
2017-11-06T05:08:29.731Z,11.00
2017-11-06T05:10:57.209Z,10.90
2017-11-06T05:13:24.686Z,11.00
2017-11-06T05:15:52.921Z,10.90
2017-11-06T05:18:20.393Z,10.90
2017-11-06T05:20:47.886Z,11.00
2017-11-06T05:23:16.126Z,11.30
2017-11-06T05:25:43.602Z,11.20
2017-11-06T05:28:11.073Z,11.10
2017-11-06T05:30:39.313Z,10.90
2017-11-06T05:33:06.899Z,10.80
2017-11-06T05:35:35.142Z,11.90
2017-11-06T05:38:02.618Z,11.80
2017-11-06T05:40:30.093Z,11.30
2017-11-06T05:42:57.569Z,10.90
2017-11-06T05:45:25.810Z,10.60
2017-11-06T05:47:53.289Z,10.60
2017-11-06T05:50:21.539Z,10.40
2017-11-06T05:52:49.043Z,10.40
2017-11-06T05:55:17.280Z,10.70
2017-11-06T05:57:44.812Z,10.70
2017-11-06T06:00:12.290Z,10.80
2017-11-06T06:02:39.762Z,10.80
2017-11-06T06:05:07.249Z,10.70
2017-11-06T06:07:35.490Z,10.70
2017-11-06T06:10:02.962Z,10.70
2017-11-06T06:12:30.437Z,10.90
2017-11-06T06:14:58.673Z,11.10
2017-11-06T06:17:26.150Z,11.10
2017-11-06T06:19:53.626Z,11.10
2017-11-06T06:22:21.869Z,11.30
2017-11-06T06:24:49.343Z,11.20
2017-11-06T06:27:16.818Z,11.30
2017-11-06T06:29:44.294Z,11.20
2017-11-06T06:32:12.538Z,11.20
2017-11-06T06:34:40.010Z,11.20
2017-11-06T06:37:07.482Z,11.10
2017-11-06T06:39:35.721Z,10.90
2017-11-06T06:42:03.201Z,10.90
2017-11-06T06:44:30.675Z,10.90
2017-11-06T06:46:58.985Z,11.10
2017-11-06T06:49:26.461Z,11.10
2017-11-06T06:51:53.941Z,11.00
2017-11-06T06:54:21.417Z,10.90
2017-11-06T06:56:49.673Z,10.90
2017-11-06T06:59:17.154Z,10.80
2017-11-06T07:01:45.403Z,10.80
2017-11-06T07:04:12.877Z,10.80
2017-11-06T07:06:40.355Z,10.90
2017-11-06T07:09:08.601Z,10.90
2017-11-06T07:11:36.076Z,10.90
2017-11-06T07:14:03.553Z,10.90
2017-11-06T07:16:31.794Z,11.10
2017-11-06T07:18:59.280Z,11.00
2017-11-06T07:21:27.522Z,11.00
2017-11-06T07:23:55.015Z,10.90
2017-11-06T07:26:23.261Z,11.00
2017-11-06T07:28:50.733Z,10.90
2017-11-06T07:31:18.228Z,11.10
2017-11-06T07:33:45.714Z,11.00
2017-11-06T07:36:13.185Z,10.90
2017-11-06T07:38:40.663Z,10.80
2017-11-06T07:41:08.138Z,10.80
2017-11-06T07:43:35.618Z,10.80
2017-11-06T07:46:03.878Z,10.80
2017-11-06T07:48:31.359Z,10.80
2017-11-06T07:51:05.361Z,10.80
2017-11-06T07:53:33.606Z,10.90
2017-11-06T07:56:01.130Z,10.90
2017-11-06T07:58:28.615Z,10.90
2017-11-06T08:00:56.094Z,10.90
2017-11-06T08:03:23.582Z,11.30
2017-11-06T08:05:51.070Z,11.60
2017-11-06T08:08:18.550Z,11.30
2017-11-06T08:10:46.030Z,11.30
2017-11-06T08:13:13.509Z,11.30
2017-11-06T08:15:41.764Z,11.30
2017-11-06T08:18:09.242Z,11.30
2017-11-06T08:20:37.490Z,11.30
2017-11-06T08:23:04.966Z,11.30
2017-11-06T08:25:32.433Z,11.20
2017-11-06T08:28:00.714Z,11.40
2017-11-06T08:30:28.964Z,11.50
2017-11-06T08:32:56.458Z,11.40
2017-11-06T08:35:24.706Z,11.50
2017-11-06T08:37:52.187Z,11.50
2017-11-06T08:40:20.445Z,11.60
2017-11-06T08:42:48.706Z,11.50
2017-11-06T08:45:16.191Z,11.50
2017-11-06T08:47:44.443Z,11.40
2017-11-06T08:50:11.926Z,11.30
2017-11-06T08:52:40.177Z,11.40
2017-11-06T08:55:07.663Z,11.40
2017-11-06T08:57:35.914Z,11.50
2017-11-06T09:00:03.398Z,11.40
2017-11-06T09:02:31.646Z,11.70
2017-11-06T09:04:59.117Z,11.70
2017-11-06T09:07:26.589Z,11.60
2017-11-06T09:09:54.835Z,11.80
2017-11-06T09:12:22.314Z,11.70
2017-11-06T09:14:49.795Z,11.50
2017-11-06T09:17:18.047Z,11.60
2017-11-06T09:19:45.521Z,11.50
2017-11-06T09:22:13.772Z,11.70
2017-11-06T09:24:41.253Z,11.60
2017-11-06T09:27:08.724Z,11.80
2017-11-06T09:29:36.961Z,11.70
2017-11-06T09:32:04.433Z,11.60
2017-11-06T09:34:31.909Z,11.80
2017-11-06T09:37:00.154Z,11.70
2017-11-06T09:39:27.632Z,11.70
2017-11-06T09:41:55.106Z,11.50
2017-11-06T09:44:23.351Z,11.40
2017-11-06T09:46:50.833Z,11.30
2017-11-06T09:49:18.305Z,11.40
2017-11-06T09:51:46.546Z,11.40
2017-11-06T09:54:14.019Z,11.30
2017-11-06T09:56:41.498Z,11.40
2017-11-06T09:59:09.748Z,11.30
2017-11-06T10:01:37.229Z,11.30
2017-11-06T10:04:05.470Z,11.30
2017-11-06T10:06:32.960Z,11.20
2017-11-06T10:09:01.237Z,11.60
2017-11-06T10:11:28.710Z,11.60
2017-11-06T10:13:56.954Z,11.20
2017-11-06T10:16:24.429Z,11.20
2017-11-06T10:18:52.669Z,11.60
2017-11-06T10:21:20.137Z,11.60
2017-11-06T10:23:47.610Z,11.50
2017-11-06T10:26:15.094Z,11.10
2017-11-06T10:28:43.402Z,11.30
2017-11-06T10:31:10.886Z,11.30
2017-11-06T10:33:38.358Z,11.40
2017-11-06T10:36:05.838Z,11.60
2017-11-06T10:38:34.125Z,11.30
2017-11-06T10:41:02.361Z,11.50
2017-11-06T10:43:29.841Z,11.50
2017-11-06T10:45:57.305Z,11.30
2017-11-06T10:48:24.777Z,11.40
2017-11-06T10:50:53.014Z,12.10
2017-11-06T10:53:20.494Z,12.10
2017-11-06T10:55:47.961Z,12.20
2017-11-06T10:58:16.202Z,12.10
2017-11-06T11:00:43.678Z,12.00
2017-11-06T11:03:11.153Z,11.80
2017-11-06T11:05:39.408Z,11.50
2017-11-06T11:08:06.881Z,11.40
2017-11-06T11:10:34.353Z,11.40
2017-11-06T11:13:02.592Z,11.90
2017-11-06T11:15:30.084Z,11.90
2017-11-06T11:17:58.338Z,11.80
2017-11-06T11:20:25.809Z,11.70
2017-11-06T11:22:53.279Z,11.70
2017-11-06T11:25:21.527Z,11.50
2017-11-06T11:27:49.001Z,11.40
2017-11-06T11:30:16.476Z,11.30
2017-11-06T11:32:44.713Z,11.60
2017-11-06T11:35:12.197Z,11.50
2017-11-06T11:37:39.670Z,11.70
2017-11-06T11:40:07.914Z,12.00
2017-11-06T11:42:35.396Z,11.90
2017-11-06T11:45:02.874Z,11.70
2017-11-06T11:47:31.135Z,12.30
2017-11-06T11:49:59.388Z,11.80
2017-11-06T11:52:26.876Z,11.80
2017-11-06T11:54:55.116Z,12.00
2017-11-06T11:57:22.605Z,12.00
2017-11-06T11:59:50.071Z,11.80
2017-11-06T12:02:18.324Z,12.10
2017-11-06T12:04:45.805Z,12.10
2017-11-06T12:07:14.045Z,11.60
2017-11-06T12:09:41.529Z,11.60
2017-11-06T12:12:09.010Z,11.60
2017-11-06T12:14:37.266Z,11.70
2017-11-06T12:17:04.737Z,11.70
2017-11-06T12:19:32.988Z,12.10
2017-11-06T12:22:00.473Z,12.10
2017-11-06T12:24:28.720Z,11.90
2017-11-06T12:26:56.200Z,11.90
2017-11-06T12:29:23.677Z,11.70
2017-11-06T12:31:51.917Z,11.60
2017-11-06T12:34:19.406Z,11.60
2017-11-06T12:36:47.677Z,12.10
2017-11-06T12:39:15.925Z,12.00
2017-11-06T12:41:43.405Z,12.00
2017-11-06T12:44:11.665Z,11.70
2017-11-06T12:46:39.146Z,11.70
2017-11-06T12:49:07.397Z,12.10
2017-11-06T12:51:34.877Z,12.00
2017-11-06T12:54:03.137Z,11.90
2017-11-06T12:56:30.614Z,11.90
2017-11-06T12:58:58.099Z,11.70
2017-11-06T13:01:25.677Z,11.70
2017-11-06T13:03:53.158Z,11.70
2017-11-06T13:06:20.645Z,11.70
2017-11-06T13:08:48.901Z,11.60
2017-11-06T13:11:16.385Z,11.60
2017-11-06T13:13:43.864Z,11.90
2017-11-06T13:16:12.113Z,11.60
2017-11-06T13:18:39.589Z,11.50
2017-11-06T13:21:07.845Z,11.40
2017-11-06T13:23:35.332Z,11.40
2017-11-06T13:26:03.581Z,11.90
2017-11-06T13:28:31.061Z,11.90
2017-11-06T13:30:59.306Z,11.70
2017-11-06T13:33:26.785Z,11.70
2017-11-06T13:35:54.258Z,11.60
2017-11-06T13:38:22.493Z,11.30
2017-11-06T13:40:50.011Z,11.20
2017-11-06T13:43:17.497Z,11.30
2017-11-06T13:45:44.977Z,11.60
2017-11-06T13:48:12.457Z,11.80
2017-11-06T13:50:39.947Z,11.60
2017-11-06T13:53:07.433Z,11.70
2017-11-06T13:55:34.913Z,12.20
2017-11-06T13:58:02.394Z,11.70
2017-11-06T14:00:30.640Z,11.60
2017-11-06T14:02:58.122Z,11.50
2017-11-06T14:05:25.597Z,12.20
2017-11-06T14:07:53.857Z,11.20
2017-11-06T14:10:21.348Z,11.20
2017-11-06T14:12:49.601Z,10.90
2017-11-06T14:15:17.097Z,10.90
2017-11-06T14:17:44.574Z,10.90
2017-11-06T14:20:12.054Z,10.80
2017-11-06T14:22:39.533Z,10.80
2017-11-06T14:27:49.085Z,11.70
2017-11-06T14:30:16.566Z,11.40
2017-11-06T14:32:44.808Z,12.30
2017-11-06T14:35:12.289Z,12.20
2017-11-06T14:37:39.794Z,12.60
2017-11-06T14:40:07.280Z,12.30
2017-11-06T14:42:34.772Z,11.50
2017-11-06T14:45:03.022Z,11.80
2017-11-06T14:47:30.507Z,11.80
2017-11-06T14:49:58.757Z,13.90
2017-11-06T14:52:26.253Z,13.90
2017-11-06T14:54:54.497Z,14.30
2017-11-06T14:57:21.989Z,14.20
2017-11-06T14:59:50.233Z,14.00
2017-11-06T15:02:17.710Z,13.90
2017-11-06T15:04:45.185Z,13.50
2017-11-06T15:07:13.438Z,12.20
2017-11-06T15:09:40.917Z,12.10
2017-11-06T15:12:09.162Z,11.80
2017-11-06T15:14:36.644Z,11.70
2017-11-06T15:17:04.893Z,12.90
2017-11-06T15:19:32.373Z,12.80
2017-11-06T15:22:00.620Z,11.90
2017-11-06T15:24:28.102Z,11.90
2017-11-06T15:26:55.585Z,13.20
2017-11-06T15:29:23.829Z,12.10
2017-11-06T15:31:51.309Z,12.10
2017-11-06T15:34:19.562Z,12.60
2017-11-06T15:36:47.041Z,12.50
2017-11-06T15:39:14.517Z,12.00
2017-11-06T15:41:42.765Z,12.30
2017-11-06T15:44:10.247Z,12.20
2017-11-06T15:46:38.493Z,11.30
2017-11-06T15:49:05.969Z,11.30
2017-11-06T15:51:33.448Z,11.30
2017-11-06T15:54:01.689Z,11.40
2017-11-06T15:56:29.168Z,11.40
2017-11-06T15:58:57.413Z,11.90
2017-11-06T16:01:24.894Z,11.90
2017-11-06T16:03:52.389Z,11.70
2017-11-06T16:06:19.873Z,11.80
2017-11-06T16:08:47.357Z,11.70
2017-11-06T16:11:14.839Z,11.70
2017-11-06T16:13:43.089Z,12.60
2017-11-06T16:16:10.705Z,12.60
2017-11-06T16:18:38.199Z,13.20
2017-11-06T16:21:05.729Z,13.50
2017-11-06T16:23:33.220Z,12.70
2017-11-06T16:26:01.470Z,12.00
2017-11-06T16:28:28.976Z,12.00
2017-11-06T16:30:56.465Z,12.00
2017-11-06T16:33:24.831Z,12.10
2017-11-06T16:35:53.085Z,11.90
2017-11-06T16:38:20.572Z,11.90
2017-11-06T16:40:48.815Z,11.70
2017-11-06T16:43:16.304Z,11.70
2017-11-06T16:45:44.564Z,11.90
2017-11-06T16:48:12.097Z,11.90
2017-11-06T16:50:39.577Z,12.00
2017-11-06T16:53:07.061Z,12.50
2017-11-06T16:55:35.309Z,12.20
2017-11-06T16:58:02.789Z,12.20
2017-11-06T17:00:30.265Z,12.10
2017-11-06T17:02:57.750Z,12.10
2017-11-06T17:05:25.260Z,12.10
2017-11-06T17:07:52.737Z,12.50
2017-11-06T17:10:20.988Z,12.20
2017-11-06T17:12:48.465Z,12.10
2017-11-06T17:15:16.718Z,12.20
2017-11-06T17:17:44.193Z,12.20
2017-11-06T17:20:11.669Z,12.20
2017-11-06T17:22:39.922Z,12.60
2017-11-06T17:25:07.399Z,12.50
2017-11-06T17:27:35.687Z,12.70
2017-11-06T17:30:03.929Z,12.60
2017-11-06T17:32:31.402Z,12.50
2017-11-06T17:34:59.658Z,12.20
2017-11-06T17:37:27.147Z,12.10
2017-11-06T17:39:55.401Z,11.90
2017-11-06T17:42:22.888Z,11.90
2017-11-06T17:44:51.129Z,12.20
2017-11-06T17:47:18.614Z,12.20
2017-11-06T17:49:46.861Z,12.50
2017-11-06T17:52:14.343Z,12.50
2017-11-06T17:54:41.819Z,12.40
2017-11-06T17:57:10.068Z,12.00
2017-11-06T17:59:37.542Z,12.00
2017-11-06T18:02:05.797Z,11.90
2017-11-06T18:04:33.275Z,11.80
2017-11-06T18:07:00.752Z,11.80
2017-11-06T18:09:29.088Z,11.90
2017-11-06T18:11:56.574Z,11.80
2017-11-06T18:14:24.826Z,12.00
2017-11-06T18:16:52.302Z,11.90
2017-11-06T18:19:19.774Z,12.00
2017-11-06T18:21:48.017Z,12.40
2017-11-06T18:24:15.502Z,12.40
2017-11-06T18:26:42.977Z,12.70
2017-11-06T18:29:11.230Z,13.50
2017-11-06T18:31:38.714Z,13.40
2017-11-06T18:34:06.961Z,13.30
2017-11-06T18:36:34.446Z,13.30
2017-11-06T18:39:02.706Z,13.30
2017-11-06T18:41:30.962Z,13.30
2017-11-06T18:43:58.442Z,13.20
2017-11-06T18:46:25.930Z,13.60
2017-11-06T18:48:53.428Z,13.20
2017-11-06T18:51:20.912Z,13.00
2017-11-06T18:53:48.396Z,13.20
2017-11-06T18:56:16.637Z,12.80
2017-11-06T18:58:44.117Z,12.80
2017-11-06T19:01:12.381Z,12.80
2017-11-06T19:03:39.868Z,12.80
2017-11-06T19:06:07.362Z,12.80
2017-11-06T19:08:34.843Z,13.10
2017-11-06T19:11:02.333Z,13.20
2017-11-06T19:13:30.578Z,13.10
2017-11-06T19:15:58.078Z,13.10
2017-11-06T19:18:26.321Z,13.30
2017-11-06T19:20:53.805Z,13.30
2017-11-06T19:23:22.057Z,13.80
2017-11-06T19:25:49.531Z,13.80
2017-11-06T19:28:17.010Z,12.90
2017-11-06T19:30:45.256Z,12.30
2017-11-06T19:33:12.738Z,12.30
2017-11-06T19:35:40.982Z,12.30
2017-11-06T19:38:08.462Z,12.20
2017-11-06T19:40:35.938Z,12.30
2017-11-06T19:43:04.178Z,12.20
2017-11-06T19:45:31.656Z,12.20
2017-11-06T19:47:59.901Z,12.30
2017-11-06T19:50:28.367Z,12.20
2017-11-06T19:52:55.833Z,12.10
2017-11-06T19:55:23.330Z,12.10
2017-11-06T19:57:51.581Z,12.10
2017-11-06T20:00:19.053Z,12.10
2017-11-06T20:02:48.033Z,12.20
2017-11-06T20:05:15.505Z,12.20
2017-11-06T20:07:42.981Z,12.10
2017-11-06T20:10:10.454Z,12.20
2017-11-06T20:12:38.704Z,12.40
2017-11-06T20:15:06.183Z,12.30
2017-11-06T20:17:34.450Z,12.30
2017-11-06T20:20:01.925Z,12.20
2017-11-06T20:22:30.163Z,12.20
2017-11-06T20:24:57.641Z,12.20
2017-11-06T20:27:25.115Z,12.10
2017-11-06T20:29:53.357Z,12.10
2017-11-06T20:32:20.833Z,12.10
2017-11-06T20:34:48.316Z,12.10
2017-11-06T20:37:16.562Z,12.10
2017-11-06T20:39:44.042Z,12.10
2017-11-06T20:42:14.695Z,12.10
2017-11-06T20:44:42.164Z,12.10
2017-11-06T20:47:09.640Z,12.10
2017-11-06T20:49:37.121Z,12.00
2017-11-06T20:52:04.615Z,12.10
2017-11-06T20:54:32.853Z,12.20
2017-11-06T20:57:00.379Z,12.10
2017-11-06T20:59:27.854Z,12.10
2017-11-06T21:01:56.197Z,12.10
2017-11-06T21:04:24.435Z,12.00
2017-11-06T21:06:51.901Z,12.00
2017-11-06T21:09:19.378Z,12.10
2017-11-06T21:11:47.621Z,12.00
2017-11-06T21:14:15.101Z,11.90
2017-11-06T21:16:42.569Z,11.90
2017-11-06T21:19:10.809Z,12.00
2017-11-06T21:21:38.278Z,12.00
2017-11-06T21:24:05.750Z,12.00
2017-11-06T21:26:33.224Z,12.10
2017-11-06T21:29:01.465Z,12.10
2017-11-06T21:31:28.941Z,12.00
2017-11-06T21:33:56.414Z,11.90
2017-11-06T21:36:24.655Z,12.00
2017-11-06T21:38:52.161Z,11.90
2017-11-06T21:41:20.408Z,12.10
2017-11-06T21:43:47.881Z,12.10
2017-11-06T21:46:16.125Z,12.10
2017-11-06T21:48:43.618Z,12.00
2017-11-06T21:51:11.872Z,12.10
2017-11-06T21:53:39.361Z,12.00
2017-11-06T21:56:07.617Z,13.70
2017-11-06T21:58:35.103Z,13.60
2017-11-06T22:01:03.357Z,13.20
2017-11-06T22:03:30.845Z,13.20
2017-11-06T22:05:59.097Z,13.40
2017-11-06T22:08:26.602Z,13.30
2017-11-06T22:10:54.087Z,12.90
2017-11-06T22:13:21.572Z,13.20
2017-11-06T22:15:49.062Z,12.90
2017-11-06T22:18:16.546Z,12.70
2017-11-06T22:20:44.021Z,12.70
2017-11-06T22:23:11.506Z,12.80
2017-11-06T22:25:39.008Z,12.60
2017-11-06T22:28:06.500Z,12.80
2017-11-06T22:30:33.985Z,12.80
2017-11-06T22:33:01.469Z,13.20
2017-11-06T22:35:29.710Z,13.50
2017-11-06T22:37:57.194Z,13.40
2017-11-06T22:40:25.474Z,13.50
2017-11-06T22:42:53.717Z,13.30
2017-11-06T22:45:21.194Z,13.30
2017-11-06T22:47:49.574Z,13.10
2017-11-06T22:50:17.066Z,13.00
2017-11-06T22:52:44.546Z,13.50
2017-11-06T22:55:12.029Z,13.80
2017-11-06T22:57:39.522Z,13.30
2017-11-06T23:00:07.777Z,13.60
2017-11-06T23:02:35.262Z,13.60
2017-11-06T23:05:03.516Z,13.00
2017-11-06T23:07:31.000Z,13.00
2017-11-06T23:09:59.241Z,13.20
2017-11-06T23:12:26.717Z,13.10
2017-11-06T23:14:54.201Z,13.00
2017-11-06T23:17:21.682Z,13.10
2017-11-06T23:19:49.161Z,13.30
2017-11-06T23:22:16.641Z,13.20
2017-11-06T23:24:44.115Z,12.90
2017-11-06T23:27:12.354Z,13.20
2017-11-06T23:29:39.878Z,13.20
2017-11-06T23:32:07.364Z,13.50
2017-11-06T23:34:34.853Z,13.00
2017-11-06T23:37:02.344Z,13.40
2017-11-06T23:39:30.581Z,13.10
2017-11-06T23:41:58.065Z,13.00
2017-11-06T23:44:26.307Z,12.30
2017-11-06T23:46:53.778Z,12.30
2017-11-06T23:49:21.249Z,12.20
2017-11-06T23:51:48.719Z,12.20
2017-11-06T23:54:18.789Z,11.80
2017-11-06T23:56:46.268Z,11.70
2017-11-06T23:59:13.740Z,12.10
